Cereal, Canada
Current Conditions -  °F | °C
As of 6:00 PM on Friday 24 Oct 2014 (Local Time) from CYKY Reporting Station
Few Clouds Few Clouds  
Wind Chill: 42°   Ceiling: Unl
Heat Index: 46°   Visibility: 15mi
Dew Point: 28°   Wind: 8mph
Humidity: 50%   Direction: 290°WNW
Pressure: 29.93"   Gusts: NA
Location:  51.42°N, 110.8°W
Report Text: CYKY 250000Z 29007KT 15SM FEW080 08/M02 A2993 RMK AC1 SLP156
Loading
Personal Weather Stations






























Interactive Weather Map
Tropical Storm Tracking
New forecast layout! Learn more

10-Day Weather Forecast

Advertisements
Track Severe Weather on mobile